Time;durP1;ratioP1;P1;durP2;ratioP2;P2;SDS_P1;SDS_P2;PMS_P1;PMS_P2;Temp;Humidity;BMP_temperature;BMP_pressure;BME280_temperature;BME280_humidity;BME280_pressure;Samples;Min_cycle;Max_cycle;Signal;HPM_P1;HPM_P2
2024/01/07 00:01:49;;;;;;;3.83;2.85;;;0.30;99.90;;;;;;5055564;28;20036;-82
2024/01/07 00:04:15;;;;;;;2.23;1.53;;;0.30;99.90;;;;;;5051709;28;20037;-83
2024/01/07 00:06:41;;;;;;;5.40;2.78;;;0.30;99.90;;;;;;5055978;28;20283;-83
2024/01/07 00:09:07;;;;;;;7.55;3.88;;;0.30;99.90;;;;;;5055412;28;20110;-83
2024/01/07 00:11:33;;;;;;;8.43;2.80;;;0.30;99.90;;;;;;5071519;28;20040;-85
2024/01/07 00:13:59;;;;;;;3.08;2.53;;;0.30;99.90;;;;;;5090165;28;20059;-83
2024/01/07 00:16:24;;;;;;;7.55;3.47;;;0.30;99.90;;;;;;5074669;28;20040;-83
2024/01/07 00:18:50;;;;;;;4.43;2.40;;;0.30;99.90;;;;;;5066593;28;20032;-83
2024/01/07 00:21:16;;;;;;;6.30;3.03;;;0.30;99.90;;;;;;5074920;28;20119;-83
2024/01/07 00:23:42;;;;;;;5.53;3.15;;;0.30;99.90;;;;;;5045201;28;20370;-83
2024/01/07 00:26:08;;;;;;;8.40;3.17;;;0.30;99.90;;;;;;5054477;28;20132;-83
2024/01/07 00:28:34;;;;;;;4.55;2.65;;;0.30;99.90;;;;;;5058910;28;20461;-83
2024/01/07 00:30:59;;;;;;;7.90;3.40;;;0.30;99.90;;;;;;5064440;28;20074;-84
2024/01/07 00:33:25;;;;;;;6.00;3.40;;;0.30;99.90;;;;;;5074122;28;20040;-84
2024/01/07 00:35:51;;;;;;;4.25;2.83;;;0.30;99.90;;;;;;5074282;28;20040;-84
2024/01/07 00:38:17;;;;;;;4.55;2.47;;;0.40;99.90;;;;;;5090203;28;20068;-84
2024/01/07 00:40:43;;;;;;;4.20;2.33;;;0.40;99.90;;;;;;5041045;28;20032;-84
2024/01/07 00:43:09;;;;;;;5.78;2.92;;;0.30;99.90;;;;;;5037861;28;20397;-84
2024/01/07 00:45:35;;;;;;;6.78;2.95;;;0.40;99.90;;;;;;5071983;28;20037;-84
2024/01/07 00:48:12;;;;;;;4.22;2.65;;;0.30;99.90;;;;;;5055326;28;20080;-84
2024/01/07 00:50:44;;;;;;;5.82;3.05;;;0.30;99.90;;;;;;5054029;28;20052;-84
2024/01/07 00:53:10;;;;;;;2.83;2.17;;;0.30;99.90;;;;;;5068304;28;20040;-84
2024/01/07 00:55:36;;;;;;;4.68;3.13;;;0.30;99.90;;;;;;5018018;28;20052;-84
2024/01/07 00:58:02;;;;;;;4.15;2.58;;;0.30;99.90;;;;;;5017959;28;20037;-84
2024/01/07 01:00:28;;;;;;;4.88;2.53;;;0.40;99.90;;;;;;5026951;28;20368;-84
2024/01/07 01:02:54;;;;;;;5.47;3.30;;;0.30;99.90;;;;;;5053890;28;20032;-84
2024/01/07 01:05:20;;;;;;;5.55;2.08;;;0.30;99.90;;;;;;5035108;28;20498;-84
2024/01/07 01:07:46;;;;;;;6.88;3.22;;;0.30;99.90;;;;;;5024890;28;20036;-84
2024/01/07 01:10:13;;;;;;;9.20;3.63;;;0.30;99.90;;;;;;5067588;28;20410;-84
2024/01/07 01:12:38;;;;;;;3.88;2.53;;;0.40;99.90;;;;;;5054200;28;20036;-84
2024/01/07 01:15:04;;;;;;;5.15;3.08;;;0.30;99.90;;;;;;5053573;28;20436;-83
2024/01/07 01:17:30;;;;;;;7.75;3.03;;;0.30;99.90;;;;;;5053836;28;20036;-83
2024/01/07 01:19:56;;;;;;;3.42;2.65;;;0.30;99.90;;;;;;5066157;28;20510;-83
2024/01/07 01:22:22;;;;;;;6.70;3.13;;;0.40;99.90;;;;;;5070802;28;20029;-83
2024/01/07 01:24:48;;;;;;;5.45;2.70;;;0.30;99.90;;;;;;5037770;28;20189;-83
2024/01/07 01:27:15;;;;;;;3.95;2.40;;;0.30;99.90;;;;;;5050315;28;20530;-83
2024/01/07 01:29:41;;;;;;;5.78;2.67;;;0.30;99.90;;;;;;5066410;28;20037;-82
2024/01/07 01:32:07;;;;;;;5.68;3.10;;;0.30;99.90;;;;;;5053966;28;20103;-82
2024/01/07 01:34:33;;;;;;;4.35;1.95;;;0.30;99.90;;;;;;5069980;28;20040;-82
2024/01/07 01:36:58;;;;;;;7.10;2.72;;;0.30;99.90;;;;;;5051157;28;20028;-82
2024/01/07 01:39:24;;;;;;;7.03;3.47;;;0.30;99.90;;;;;;5038161;28;20544;-82
2024/01/07 01:41:50;;;;;;;5.45;2.75;;;0.40;99.90;;;;;;5033902;28;20764;-82
2024/01/07 01:44:16;;;;;;;8.80;2.95;;;0.30;99.90;;;;;;5033655;28;20057;-82
2024/01/07 01:46:48;;;;;;;6.88;2.15;;;0.40;99.90;;;;;;5042959;28;20052;-82
2024/01/07 01:49:24;;;;;;;6.80;3.33;;;0.40;99.90;;;;;;5052082;28;20084;-82
2024/01/07 01:51:52;;;;;;;7.07;4.05;;;0.40;99.90;;;;;;5028379;28;20091;-82
2024/01/07 01:54:17;;;;;;;5.63;3.83;;;0.40;99.90;;;;;;5051626;28;20098;-82
2024/01/07 01:56:43;;;;;;;7.78;3.05;;;0.30;99.90;;;;;;5048313;28;20040;-83
2024/01/07 01:59:10;;;;;;;4.10;2.35;;;0.30;99.90;;;;;;5028130;28;20402;-82
2024/01/07 02:01:37;;;;;;;4.75;3.28;;;0.30;99.90;;;;;;5057636;28;20064;-82
2024/01/07 02:04:04;;;;;;;2.58;2.00;;;0.30;99.90;;;;;;5026679;28;20056;-83
2024/01/07 02:06:30;;;;;;;6.45;3.67;;;0.30;99.90;;;;;;5036999;28;20438;-83
2024/01/07 02:08:56;;;;;;;5.15;2.72;;;0.30;99.90;;;;;;5031197;28;20162;-83
2024/01/07 02:11:22;;;;;;;6.53;2.83;;;0.30;99.90;;;;;;5032840;28;20079;-83
2024/01/07 02:17:15;;;;;;;3.58;1.95;;;0.30;99.90;;;;;;5031645;28;20033;-82
2024/01/07 02:19:40;;;;;;;5.18;3.25;;;0.30;99.90;;;;;;5015316;28;20045;-82
2024/01/07 02:22:06;;;;;;;3.80;2.60;;;0.30;99.90;;;;;;5040746;28;20329;-82
2024/01/07 02:24:32;;;;;;;4.53;2.97;;;0.20;99.90;;;;;;5042589;28;20044;-82
2024/01/07 02:27:04;;;;;;;4.80;3.13;;;0.30;99.90;;;;;;5031702;28;20087;-82
2024/01/07 02:29:30;;;;;;;3.65;2.47;;;0.30;99.90;;;;;;5050190;28;20095;-82
2024/01/07 02:31:56;;;;;;;4.53;2.83;;;0.30;99.90;;;;;;5034209;28;20044;-82
2024/01/07 02:34:21;;;;;;;6.47;2.45;;;0.20;99.90;;;;;;5039971;28;20043;-82
2024/01/07 02:36:47;;;;;;;6.60;3.33;;;0.20;99.90;;;;;;5051212;28;20133;-82
2024/01/07 02:39:13;;;;;;;6.38;3.03;;;0.20;99.90;;;;;;5044563;28;20033;-82
2024/01/07 02:41:39;;;;;;;6.38;3.38;;;0.20;99.90;;;;;;5054857;28;20064;-82
2024/01/07 02:44:04;;;;;;;6.88;3.28;;;0.20;99.90;;;;;;5056587;28;20082;-82
2024/01/07 02:46:31;;;;;;;7.40;3.33;;;0.20;99.90;;;;;;5052563;28;20044;-82
2024/01/07 02:48:57;;;;;;;3.58;2.72;;;0.20;99.90;;;;;;5060045;28;20056;-82
2024/01/07 02:51:29;;;;;;;5.28;3.00;;;0.20;99.90;;;;;;5056541;28;20054;-82
2024/01/07 02:53:55;;;;;;;8.60;3.53;;;0.20;99.90;;;;;;5040872;28;20123;-82
2024/01/07 02:56:20;;;;;;;6.22;3.03;;;0.20;99.90;;;;;;5073117;28;20068;-82
2024/01/07 02:58:46;;;;;;;7.10;3.30;;;0.20;99.90;;;;;;5056243;28;20036;-82
2024/01/07 03:01:12;;;;;;;2.92;2.17;;;0.20;99.90;;;;;;5039731;28;20504;-82
2024/01/07 03:03:38;;;;;;;8.20;3.08;;;0.20;99.90;;;;;;5052164;28;20047;-82
2024/01/07 03:06:04;;;;;;;8.68;2.58;;;0.20;99.90;;;;;;5039521;28;20123;-82
2024/01/07 03:08:30;;;;;;;5.50;2.58;;;0.20;99.90;;;;;;5040187;28;20440;-82
2024/01/07 03:10:56;;;;;;;8.80;3.63;;;0.20;99.90;;;;;;5056730;28;20469;-82
2024/01/07 03:13:22;;;;;;;5.57;2.50;;;0.20;99.90;;;;;;5056214;28;20040;-82
2024/01/07 03:15:48;;;;;;;5.70;2.88;;;0.20;99.90;;;;;;5034361;28;20025;-82
2024/01/07 03:18:13;;;;;;;5.72;3.50;;;0.20;99.90;;;;;;5052734;28;20487;-82
2024/01/07 03:20:39;;;;;;;8.25;3.13;;;0.20;99.90;;;;;;5071948;28;20538;-82
2024/01/07 03:23:05;;;;;;;5.53;3.05;;;0.20;99.90;;;;;;5054160;28;20126;-82
2024/01/07 03:25:30;;;;;;;3.90;2.10;;;0.20;99.90;;;;;;5056776;28;20040;-82
2024/01/07 03:27:56;;;;;;;2.65;1.83;;;0.20;99.90;;;;;;5050888;28;20132;-82
2024/01/07 03:30:22;;;;;;;4.15;2.38;;;0.10;99.90;;;;;;5055931;28;20068;-82
2024/01/07 03:32:48;;;;;;;6.57;1.95;;;0.20;99.90;;;;;;5039567;28;20045;-82
2024/01/07 03:35:14;;;;;;;4.50;2.72;;;0.20;99.90;;;;;;5055823;28;20044;-82
2024/01/07 03:37:40;;;;;;;3.03;2.58;;;0.10;99.90;;;;;;5055494;28;20040;-82
2024/01/07 03:40:12;;;;;;;3.20;2.22;;;0.10;99.90;;;;;;5024420;28;20514;-82
2024/01/07 03:42:38;;;;;;;4.50;2.30;;;0.10;99.90;;;;;;5050886;28;20095;-82
2024/01/07 03:45:05;;;;;;;2.80;2.25;;;0.10;99.90;;;;;;5052953;28;20029;-82
2024/01/07 03:47:37;;;;;;;4.20;2.25;;;0.10;99.90;;;;;;5042601;27;20049;-83
2024/01/07 03:50:10;;;;;;;3.08;1.58;;;0.10;99.90;;;;;;5085662;28;20504;-83
2024/01/07 03:52:36;;;;;;;7.50;2.00;;;0.10;99.90;;;;;;5075052;28;20040;-83
2024/01/07 03:55:01;;;;;;;5.28;2.00;;;0.10;99.90;;;;;;5071529;28;20043;-83
2024/01/07 03:57:27;;;;;;;2.35;1.63;;;0.10;99.90;;;;;;5075746;28;20058;-83
2024/01/07 03:59:53;;;;;;;2.35;1.63;;;0.10;99.90;;;;;;5072775;28;20375;-82
2024/01/07 04:02:18;;;;;;;5.32;2.42;;;0.10;99.90;;;;;;5078781;28;20482;-82
2024/01/07 04:04:50;;;;;;;3.13;1.83;;;0.10;99.90;;;;;;5074895;28;20044;-82
2024/01/07 04:07:16;;;;;;;2.67;1.33;;;0.10;99.90;;;;;;5054315;28;20048;-82
2024/01/07 04:09:44;;;;;;;2.70;2.13;;;0.10;99.90;;;;;;5087711;28;20410;-82
2024/01/07 04:12:10;;;;;;;4.82;2.33;;;0.10;99.90;;;;;;5075504;28;20111;-82
2024/01/07 04:14:35;;;;;;;5.95;2.65;;;0.10;99.90;;;;;;5075054;28;20470;-82
2024/01/07 04:17:01;;;;;;;5.70;3.05;;;0.10;99.90;;;;;;5075116;28;20071;-83
2024/01/07 04:19:27;;;;;;;3.33;1.92;;;0.10;99.90;;;;;;5088108;28;20036;-82
2024/01/07 04:21:53;;;;;;;3.88;2.33;;;0.10;99.90;;;;;;5074935;28;20029;-82
2024/01/07 04:24:18;;;;;;;6.07;2.25;;;0.10;99.90;;;;;;5050013;28;20040;-83
2024/01/07 04:26:44;;;;;;;5.05;2.63;;;0.10;99.90;;;;;;5054600;28;20090;-82
2024/01/07 04:29:10;;;;;;;3.70;2.20;;;0.00;99.90;;;;;;5065902;28;20398;-82
2024/01/07 04:31:36;;;;;;;3.25;1.85;;;0.10;99.90;;;;;;5091294;28;20417;-88
2024/01/07 04:34:02;;;;;;;4.97;1.98;;;0.00;99.90;;;;;;5058878;28;20040;-83
2024/01/07 04:36:29;;;;;;;7.25;2.75;;;0.00;99.90;;;;;;5054430;28;20042;-82
2024/01/07 04:38:55;;;;;;;2.65;1.30;;;0.00;99.90;;;;;;5054596;28;20040;-82
2024/01/07 04:41:21;;;;;;;3.15;1.67;;;0.00;99.90;;;;;;5061225;28;20032;-82
2024/01/07 04:43:46;;;;;;;3.95;1.63;;;0.00;99.90;;;;;;5091561;28;20035;-82
2024/01/07 04:46:12;;;;;;;3.53;2.50;;;0.00;99.90;;;;;;5074599;28;20039;-82
2024/01/07 04:48:38;;;;;;;3.47;2.47;;;0.00;99.90;;;;;;5064474;28;20116;-82
2024/01/07 04:51:11;;;;;;;4.03;1.60;;;0.00;99.90;;;;;;5053862;28;20032;-86
2024/01/07 04:53:37;;;;;;;3.30;1.83;;;0.00;99.90;;;;;;5054048;28;20498;-83
2024/01/07 04:56:03;;;;;;;1.40;1.08;;;0.00;99.90;;;;;;5054648;28;20036;-83
2024/01/07 04:58:28;;;;;;;3.33;1.92;;;-0.10;99.90;;;;;;5051698;28;20033;-83
2024/01/07 05:00:54;;;;;;;3.95;1.98;;;-0.10;99.90;;;;;;5050849;28;20499;-83
2024/01/07 05:03:20;;;;;;;6.72;2.10;;;-0.10;99.90;;;;;;5050648;28;20479;-83
2024/01/07 05:05:45;;;;;;;4.85;2.13;;;-0.10;99.90;;;;;;5053843;28;20063;-83
2024/01/07 05:08:11;;;;;;;4.03;1.55;;;-0.10;99.90;;;;;;5054247;28;20079;-83
2024/01/07 05:10:37;;;;;;;2.03;1.52;;;-0.10;99.90;;;;;;5037738;28;20063;-83
2024/01/07 05:13:06;;;;;;;2.90;1.65;;;-0.10;99.90;;;;;;5044749;28;20277;-82
2024/01/07 05:15:32;;;;;;;1.67;1.38;;;-0.10;99.90;;;;;;5053750;28;20040;-82
2024/01/07 05:17:58;;;;;;;3.20;1.95;;;-0.10;99.90;;;;;;5037068;28;20045;-83
2024/01/07 05:20:24;;;;;;;2.10;1.27;;;-0.10;99.90;;;;;;5031159;28;20029;-83
2024/01/07 05:22:50;;;;;;;2.08;1.70;;;-0.10;99.90;;;;;;5031125;28;20041;-83
2024/01/07 05:25:15;;;;;;;9.60;1.15;;;-0.10;99.90;;;;;;5051533;28;20113;-83
2024/01/07 05:27:41;;;;;;;4.70;1.52;;;-0.10;99.90;;;;;;5049270;28;20371;-83
2024/01/07 05:30:07;;;;;;;2.20;1.55;;;-0.10;99.90;;;;;;5029305;28;20494;-83
2024/01/07 05:32:33;;;;;;;2.03;1.55;;;-0.10;99.90;;;;;;5053510;28;20556;-83
2024/01/07 05:34:59;;;;;;;3.20;1.27;;;-0.10;99.90;;;;;;5033780;28;20036;-83
2024/01/07 05:37:25;;;;;;;3.83;1.15;;;0.00;99.90;;;;;;5036675;28;20510;-83
2024/01/07 05:40:12;;;;;;;1.83;1.08;;;0.00;99.90;;;;;;5023170;28;20038;-83
2024/01/07 05:42:45;;;;;;;2.53;1.52;;;0.00;99.90;;;;;;5031184;28;20508;-82
2024/01/07 05:45:11;;;;;;;2.30;1.50;;;0.00;99.90;;;;;;5030078;28;20033;-83
2024/01/07 05:47:50;;;;;;;4.50;2.03;;;0.00;99.90;;;;;;5055177;27;20043;-83
2024/01/07 05:50:23;;;;;;;0.93;0.65;;;0.00;99.90;;;;;;5052800;28;20054;-83
2024/01/07 05:52:49;;;;;;;3.35;1.02;;;0.00;99.90;;;;;;5053605;28;20111;-82
2024/01/07 05:55:14;;;;;;;1.63;1.05;;;0.00;99.90;;;;;;5062107;28;20044;-83
2024/01/07 05:57:40;;;;;;;2.20;0.93;;;0.00;99.90;;;;;;5073156;28;20032;-83
2024/01/07 06:00:07;;;;;;;2.00;1.30;;;0.00;99.90;;;;;;5036476;28;20036;-83
2024/01/07 06:02:34;;;;;;;2.72;1.38;;;0.00;99.90;;;;;;5036868;28;20036;-84
2024/01/07 06:05:02;;;;;;;4.40;1.27;;;0.00;99.90;;;;;;5056055;28;20036;-83
2024/01/07 06:07:29;;;;;;;3.50;1.00;;;0.00;99.90;;;;;;5056474;28;20048;-82
2024/01/07 06:09:55;;;;;;;1.92;0.93;;;0.00;99.90;;;;;;5054749;28;20039;-83
2024/01/07 06:12:21;;;;;;;1.55;0.82;;;0.00;99.90;;;;;;5088265;28;20036;-83
2024/01/07 06:14:46;;;;;;;0.98;0.65;;;0.00;99.90;;;;;;5073569;28;20032;-83
2024/01/07 06:17:12;;;;;;;0.80;0.43;;;0.00;99.90;;;;;;5061909;28;20048;-83
2024/01/07 06:19:38;;;;;;;3.05;0.82;;;0.00;99.90;;;;;;5081654;28;20032;-83
2024/01/07 06:22:04;;;;;;;0.98;0.70;;;0.00;99.90;;;;;;5073126;28;20040;-83
2024/01/07 06:24:29;;;;;;;1.45;1.15;;;0.00;99.90;;;;;;5086370;28;20468;-83
2024/01/07 06:26:55;;;;;;;1.48;0.63;;;0.00;99.90;;;;;;5073277;28;20040;-83
2024/01/07 06:29:21;;;;;;;1.15;0.80;;;0.00;99.90;;;;;;5089866;28;20032;-83
2024/01/07 06:31:48;;;;;;;1.20;0.77;;;0.00;99.90;;;;;;5089542;28;20028;-83
2024/01/07 06:34:14;;;;;;;0.50;0.45;;;0.00;99.90;;;;;;5053936;28;20041;-82
2024/01/07 06:36:43;;;;;;;1.20;0.82;;;0.00;99.90;;;;;;5053413;28;20041;-82
2024/01/07 06:39:09;;;;;;;2.60;0.63;;;0.00;99.90;;;;;;5057346;28;20118;-82
2024/01/07 06:41:35;;;;;;;1.58;1.02;;;0.00;99.90;;;;;;5036330;28;20029;-82
2024/01/07 06:44:02;;;;;;;2.28;0.60;;;-0.10;99.90;;;;;;5072006;28;20393;-82
2024/01/07 06:46:28;;;;;;;1.15;0.63;;;-0.10;99.90;;;;;;5074408;28;20047;-83
2024/01/07 06:49:01;;;;;;;1.30;0.75;;;-0.10;99.90;;;;;;5089492;27;20058;-82
2024/01/07 06:51:26;;;;;;;1.73;1.00;;;-0.10;99.90;;;;;;5040466;28;20129;-83
2024/01/07 06:53:52;;;;;;;0.90;0.70;;;-0.10;99.90;;;;;;5073567;28;20382;-83
2024/01/07 06:56:18;;;;;;;3.05;1.15;;;-0.10;99.90;;;;;;5043066;28;20504;-83
2024/01/07 06:58:45;;;;;;;0.90;0.70;;;-0.10;99.90;;;;;;5056418;28;20032;-83
2024/01/07 07:01:11;;;;;;;1.25;0.70;;;-0.10;99.90;;;;;;5064752;28;20055;-83
2024/01/07 07:03:37;;;;;;;1.95;0.50;;;-0.10;99.90;;;;;;5086887;28;20040;-83
2024/01/07 07:06:03;;;;;;;2.53;0.80;;;-0.10;99.90;;;;;;5053662;28;20048;-83
2024/01/07 07:08:29;;;;;;;1.55;0.70;;;-0.10;99.90;;;;;;5054845;28;20047;-83
2024/01/07 07:10:54;;;;;;;1.17;0.60;;;-0.10;99.90;;;;;;5062471;28;20118;-83
2024/01/07 07:13:20;;;;;;;0.50;0.50;;;-0.10;99.90;;;;;;5060425;28;20033;-84
2024/01/07 07:15:46;;;;;;;1.20;0.82;;;-0.10;99.90;;;;;;5057083;28;20032;-84
2024/01/07 07:18:11;;;;;;;1.15;0.70;;;-0.10;99.90;;;;;;5055632;28;20352;-83
2024/01/07 07:20:37;;;;;;;1.77;0.98;;;-0.10;99.90;;;;;;5085593;28;20133;-83
2024/01/07 07:23:03;;;;;;;1.70;0.93;;;-0.10;99.90;;;;;;5042626;28;20064;-83
2024/01/07 07:25:29;;;;;;;0.38;0.30;;;-0.10;99.90;;;;;;5076307;28;20043;-84
2024/01/07 07:27:56;;;;;;;0.98;0.60;;;-0.20;99.90;;;;;;5092055;28;20115;-83
2024/01/07 07:30:21;;;;;;;2.10;0.70;;;-0.20;99.90;;;;;;5077551;28;20115;-82
2024/01/07 07:32:47;;;;;;;1.85;0.65;;;-0.20;99.90;;;;;;5072666;28;20469;-82
2024/01/07 07:35:13;;;;;;;1.27;0.75;;;-0.20;99.90;;;;;;5074651;28;20486;-82
2024/01/07 07:37:39;;;;;;;0.45;0.45;;;-0.30;99.90;;;;;;5061079;28;20092;-82
2024/01/07 07:40:05;;;;;;;0.75;0.75;;;-0.20;99.90;;;;;;5054675;28;20047;-82
2024/01/07 07:42:31;;;;;;;2.10;0.93;;;-0.20;99.90;;;;;;5067986;28;20036;-82
2024/01/07 07:44:57;;;;;;;0.88;0.47;;;-0.20;99.90;;;;;;5068659;28;20037;-82
2024/01/07 07:47:22;;;;;;;1.52;0.82;;;-0.20;99.90;;;;;;5092250;28;20119;-83
2024/01/07 07:49:54;;;;;;;1.30;0.70;;;-0.20;99.90;;;;;;5054330;28;20063;-82
2024/01/07 07:52:25;;;;;;;0.43;0.43;;;-0.20;99.90;;;;;;5052688;28;20045;-83
2024/01/07 07:54:54;;;;;;;1.00;0.88;;;-0.20;99.90;;;;;;5047514;28;20048;-82
2024/01/07 07:57:21;;;;;;;2.75;0.63;;;-0.10;99.90;;;;;;5041685;28;20047;-83
2024/01/07 07:59:50;;;;;;;0.82;0.75;;;-0.20;99.90;;;;;;5052338;28;20036;-83
2024/01/07 08:02:16;;;;;;;2.10;0.57;;;-0.10;99.90;;;;;;5049020;28;20025;-84
2024/01/07 08:04:43;;;;;;;1.92;1.70;;;-0.10;99.90;;;;;;5031297;28;20120;-82
2024/01/07 08:07:09;;;;;;;1.08;0.75;;;-0.10;99.90;;;;;;5038393;28;20051;-82
2024/01/07 08:09:38;;;;;;;3.65;1.00;;;-0.10;99.90;;;;;;5072642;28;20040;-82
2024/01/07 08:12:07;;;;;;;1.92;0.95;;;-0.10;99.90;;;;;;5054266;28;20036;-83
2024/01/07 08:14:33;;;;;;;2.92;0.88;;;-0.20;99.90;;;;;;5055588;28;20119;-83
2024/01/07 08:16:59;;;;;;;1.67;0.50;;;-0.10;99.90;;;;;;5051104;28;20295;-83
2024/01/07 08:19:25;;;;;;;0.70;0.60;;;-0.10;99.90;;;;;;5047937;28;20032;-83
2024/01/07 08:21:52;;;;;;;1.23;1.13;;;-0.10;99.90;;;;;;5047468;28;20040;-83
2024/01/07 08:24:18;;;;;;;1.10;0.82;;;-0.10;99.90;;;;;;5042606;28;20039;-83
2024/01/07 08:26:44;;;;;;;0.40;0.40;;;0.00;99.90;;;;;;5024943;28;20186;-83
2024/01/07 08:29:10;;;;;;;6.18;1.65;;;0.00;99.90;;;;;;5052327;28;20535;-83
2024/01/07 08:31:35;;;;;;;1.33;0.73;;;0.00;99.90;;;;;;5040601;28;20037;-83
2024/01/07 08:34:01;;;;;;;0.80;0.57;;;0.00;99.90;;;;;;5035747;28;20033;-82
2024/01/07 08:36:27;;;;;;;0.43;0.40;;;0.00;99.90;;;;;;5025744;28;20057;-82
2024/01/07 08:38:53;;;;;;;1.98;1.15;;;0.00;99.90;;;;;;5056621;28;20040;-82
2024/01/07 08:41:18;;;;;;;0.95;0.68;;;0.10;99.90;;;;;;5029463;28;20094;-82
2024/01/07 08:43:45;;;;;;;1.35;0.70;;;0.10;99.90;;;;;;5026888;28;20067;-82
2024/01/07 08:46:13;;;;;;;1.45;1.00;;;0.20;99.90;;;;;;5068030;28;20037;-83
2024/01/07 08:48:39;;;;;;;2.38;0.57;;;0.40;99.90;;;;;;5026626;28;20057;-82
2024/01/07 08:51:18;;;;;;;0.93;0.60;;;0.70;99.90;;;;;;5022765;28;20049;-82
2024/01/07 08:53:44;;;;;;;0.50;0.40;;;0.80;99.90;;;;;;5041868;28;20561;-83
2024/01/07 08:56:09;;;;;;;1.90;0.88;;;0.70;99.90;;;;;;5063143;28;20041;-83
2024/01/07 08:58:37;;;;;;;1.08;0.55;;;0.80;99.90;;;;;;5014771;28;20064;-83
2024/01/07 09:01:02;;;;;;;1.17;0.63;;;0.90;99.90;;;;;;5021418;28;20037;-83
2024/01/07 09:03:28;;;;;;;0.70;0.40;;;1.00;99.90;;;;;;5042379;28;20099;-84
2024/01/07 09:05:54;;;;;;;1.05;0.55;;;1.20;99.90;;;;;;5021334;28;20399;-85
2024/01/07 09:08:20;;;;;;;3.80;0.55;;;1.80;99.90;;;;;;5041522;28;20461;-84
2024/01/07 09:10:45;;;;;;;1.40;0.65;;;2.30;99.90;;;;;;5041534;28;20588;-83
2024/01/07 09:13:11;;;;;;;1.60;0.93;;;2.80;99.90;;;;;;5047088;28;20118;-83
2024/01/07 09:15:37;;;;;;;0.40;0.30;;;3.20;99.90;;;;;;5038300;28;20116;-84
2024/01/07 09:18:03;;;;;;;0.88;0.57;;;3.50;99.90;;;;;;5021549;28;20033;-84
2024/01/07 09:20:29;;;;;;;1.65;0.65;;;3.70;99.90;;;;;;5017796;28;20487;-83
2024/01/07 09:22:54;;;;;;;1.33;0.32;;;4.00;99.90;;;;;;5038541;28;20037;-84
2024/01/07 09:25:20;;;;;;;0.90;0.50;;;4.40;99.90;;;;;;5017492;28;20048;-84
2024/01/07 09:27:46;;;;;;;1.20;0.55;;;4.70;99.90;;;;;;5041889;28;20044;-84
2024/01/07 09:30:14;;;;;;;1.30;0.63;;;5.00;99.90;;;;;;5022876;28;20071;-84
2024/01/07 09:32:41;;;;;;;1.33;0.82;;;5.30;99.90;;;;;;5042093;28;20036;-84
2024/01/07 09:35:07;;;;;;;0.40;0.40;;;5.70;99.90;;;;;;5033025;28;20040;-83
2024/01/07 09:37:33;;;;;;;0.70;0.52;;;5.80;99.90;;;;;;5015870;28;20095;-83
2024/01/07 09:39:59;;;;;;;1.52;0.82;;;5.50;99.90;;;;;;5020801;28;20995;-84
2024/01/07 09:42:25;;;;;;;0.75;0.75;;;5.60;99.90;;;;;;5023126;28;20643;-85
2024/01/07 09:44:51;;;;;;;2.05;0.65;;;5.80;99.90;;;;;;5022497;28;20037;-84
2024/01/07 09:47:23;;;;;;;1.58;0.75;;;6.00;99.90;;;;;;5013540;28;20056;-84
2024/01/07 09:49:55;;;;;;;3.58;0.47;;;6.00;99.90;;;;;;5022895;28;20059;-84
2024/01/07 09:52:21;;;;;;;0.65;0.47;;;5.60;99.90;;;;;;5005458;28;20047;-84
2024/01/07 09:54:57;;;;;;;1.48;0.68;;;5.60;99.90;;;;;;5005171;28;20038;-84
2024/01/07 09:57:23;;;;;;;1.02;0.45;;;6.00;99.90;;;;;;5020009;28;20058;-84
2024/01/07 09:59:50;;;;;;;0.85;0.60;;;6.30;99.90;;;;;;5011630;28;20037;-84
2024/01/07 10:02:16;;;;;;;3.60;0.70;;;6.40;99.90;;;;;;5021025;28;20034;-84
2024/01/07 10:04:42;;;;;;;0.60;0.40;;;6.70;99.90;;;;;;5036168;28;20031;-84
2024/01/07 10:07:08;;;;;;;0.45;0.40;;;7.20;99.90;;;;;;5011262;28;20134;-83
2024/01/07 10:09:34;;;;;;;1.10;0.70;;;7.50;99.90;;;;;;5010044;28;20535;-83
2024/01/07 10:12:00;;;;;;;0.80;0.50;;;7.80;99.90;;;;;;5002350;28;20044;-83
2024/01/07 10:14:26;;;;;;;0.57;0.30;;;8.10;99.90;;;;;;5028050;28;20132;-83
2024/01/07 10:16:52;;;;;;;1.00;0.47;;;8.20;99.90;;;;;;5020893;28;20472;-82
2024/01/07 10:19:23;;;;;;;0.98;0.45;;;8.30;99.90;;;;;;5020247;28;20492;-82
2024/01/07 10:22:01;;;;;;;0.95;0.50;;;8.30;99.90;;;;;;5052809;28;20080;-82
2024/01/07 10:24:31;;;;;;;4.88;0.90;;;8.20;99.90;;;;;;5006751;28;20037;-82
2024/01/07 10:26:56;;;;;;;4.80;0.50;;;7.40;99.90;;;;;;5006539;28;20038;-82
2024/01/07 10:29:22;;;;;;;1.33;0.60;;;6.60;99.90;;;;;;5027019;28;20511;-82
2024/01/07 10:31:48;;;;;;;1.83;0.50;;;5.90;99.90;;;;;;5020295;28;20538;-82
2024/01/07 10:34:15;;;;;;;1.67;0.68;;;5.10;99.90;;;;;;5022640;28;20033;-81
2024/01/07 10:36:42;;;;;;;0.52;0.50;;;4.40;99.90;;;;;;5021716;28;20400;-81
2024/01/07 10:39:08;;;;;;;0.57;0.52;;;3.80;99.90;;;;;;5021116;28;20029;-81
2024/01/07 10:41:37;;;;;;;0.70;0.60;;;3.30;99.90;;;;;;5012107;28;20035;-81
2024/01/07 10:44:02;;;;;;;1.23;0.55;;;3.00;99.90;;;;;;5013026;28;20102;-81
2024/01/07 10:46:30;;;;;;;1.15;0.77;;;2.70;99.90;;;;;;5021109;28;20555;-81
2024/01/07 10:49:23;;;;;;;3.42;0.60;;;2.50;99.90;;;;;;5016016;28;20140;-80
2024/01/07 10:52:04;;;;;;;1.35;0.65;;;2.30;99.90;;;;;;5024131;28;20049;-81
2024/01/07 10:54:33;;;;;;;1.63;0.63;;;2.10;99.90;;;;;;5025623;28;20033;-82
2024/01/07 10:57:12;;;;;;;1.10;0.50;;;2.00;99.90;;;;;;5033253;28;20060;-81
2024/01/07 10:59:38;;;;;;;2.40;0.65;;;1.80;99.90;;;;;;5025809;28;20042;-81
2024/01/07 11:02:04;;;;;;;0.50;0.35;;;1.80;99.90;;;;;;5028074;28;20529;-81
2024/01/07 11:04:37;;;;;;;0.52;0.47;;;1.70;99.90;;;;;;5025212;28;20037;-81
2024/01/07 11:07:19;;;;;;;1.35;0.63;;;1.70;99.90;;;;;;5030934;28;20111;-81
2024/01/07 11:10:11;;;;;;;0.80;0.70;;;1.60;99.90;;;;;;5008085;28;20605;-81
2024/01/07 11:12:37;;;;;;;2.67;1.25;;;1.60;99.90;;;;;;5023953;28;20072;-81
2024/01/07 11:15:04;;;;;;;0.40;0.22;;;1.50;99.90;;;;;;5025837;28;20079;-81
2024/01/07 11:17:35;;;;;;;0.65;0.60;;;1.50;99.90;;;;;;5008129;28;20650;-81
2024/01/07 11:20:05;;;;;;;0.25;0.25;;;1.50;99.90;;;;;;5031678;28;20082;-81
2024/01/07 11:22:32;;;;;;;0.20;0.20;;;1.50;99.90;;;;;;5007857;28;20033;-83
2024/01/07 11:25:02;;;;;;;0.95;0.73;;;1.50;99.90;;;;;;5011396;28;20040;-82
2024/01/07 11:27:32;;;;;;;0.70;0.47;;;1.50;99.90;;;;;;5011863;28;20033;-82
2024/01/07 11:30:19;;;;;;;1.75;0.55;;;1.50;99.90;;;;;;5032389;28;20132;-82
2024/01/07 11:32:46;;;;;;;2.05;1.35;;;1.60;99.90;;;;;;5028191;28;20377;-82
2024/01/07 11:35:15;;;;;;;0.73;0.55;;;1.70;99.90;;;;;;5027923;28;20049;-82
2024/01/07 11:37:41;;;;;;;0.82;0.55;;;2.00;99.90;;;;;;5027306;28;20068;-82
2024/01/07 11:40:08;;;;;;;3.60;0.82;;;2.40;99.90;;;;;;5016071;28;20124;-82
2024/01/07 11:42:34;;;;;;;1.50;0.63;;;2.70;99.90;;;;;;5031039;28;20061;-82
2024/01/07 11:45:00;;;;;;;1.52;0.75;;;3.00;99.90;;;;;;5024757;28;20068;-82
2024/01/07 11:47:27;;;;;;;1.08;0.50;;;3.30;99.90;;;;;;5024590;28;20050;-82
2024/01/07 11:50:00;;;;;;;0.95;0.70;;;3.60;99.90;;;;;;5031673;28;20053;-83
2024/01/07 11:52:26;;;;;;;4.35;0.90;;;3.70;99.90;;;;;;5024324;28;20664;-82
2024/01/07 11:54:52;;;;;;;1.13;0.63;;;3.70;99.90;;;;;;5023214;28;20029;-82
2024/01/07 11:57:17;;;;;;;1.90;0.93;;;4.00;99.90;;;;;;5026390;28;20037;-82
2024/01/07 11:59:43;;;;;;;0.98;0.60;;;4.20;99.90;;;;;;5024997;28;20443;-82
2024/01/07 12:02:09;;;;;;;0.73;0.57;;;4.50;99.90;;;;;;5014546;28;20060;-82
2024/01/07 12:04:35;;;;;;;0.63;0.47;;;4.80;99.90;;;;;;5020095;28;20061;-82
2024/01/07 12:07:03;;;;;;;0.95;0.70;;;5.10;99.90;;;;;;5021862;28;20131;-82
2024/01/07 12:09:29;;;;;;;0.80;0.60;;;5.00;99.90;;;;;;5032019;28;20132;-82
2024/01/07 12:11:55;;;;;;;0.55;0.40;;;5.00;99.90;;;;;;5024556;28;20044;-82
2024/01/07 12:14:22;;;;;;;2.67;0.60;;;4.90;99.90;;;;;;5023965;28;20048;-82
2024/01/07 12:16:48;;;;;;;1.92;0.70;;;4.80;99.90;;;;;;5022943;28;20048;-82
2024/01/07 12:19:14;;;;;;;1.10;0.55;;;4.40;99.90;;;;;;5031619;28;20033;-82
2024/01/07 12:21:40;;;;;;;0.93;0.85;;;4.10;99.90;;;;;;5023609;28;20071;-82
2024/01/07 12:24:06;;;;;;;3.53;1.15;;;3.90;99.90;;;;;;5016642;28;20037;-82
2024/01/07 12:26:33;;;;;;;0.88;0.68;;;3.60;99.90;;;;;;5025414;28;20076;-82
2024/01/07 12:29:03;;;;;;;1.30;0.50;;;3.40;99.90;;;;;;5025622;28;20086;-85
2024/01/07 12:31:33;;;;;;;2.25;0.50;;;3.20;99.90;;;;;;5048453;28;20412;-87
2024/01/07 12:33:59;;;;;;;1.67;0.68;;;3.10;99.90;;;;;;5033163;28;20044;-82
2024/01/07 12:36:26;;;;;;;3.00;0.77;;;3.10;99.90;;;;;;5008446;28;20400;-82
2024/01/07 12:38:55;;;;;;;1.95;0.70;;;3.30;99.90;;;;;;5024583;28;20037;-82
2024/01/07 12:41:22;;;;;;;1.50;0.70;;;3.20;99.90;;;;;;5008355;28;20041;-82
2024/01/07 12:43:49;;;;;;;1.75;0.90;;;3.00;99.90;;;;;;5020749;28;20025;-82
2024/01/07 12:46:15;;;;;;;1.67;0.80;;;2.90;99.90;;;;;;5013692;28;20029;-83
2024/01/07 12:48:48;;;;;;;2.17;0.80;;;3.00;99.90;;;;;;5021689;28;20517;-83
2024/01/07 12:51:26;;;;;;;2.75;1.10;;;2.90;99.90;;;;;;5023146;28;20037;-83
2024/01/07 12:53:52;;;;;;;2.47;0.95;;;2.70;99.90;;;;;;5030064;28;20107;-83
2024/01/07 12:56:18;;;;;;;0.80;0.60;;;2.60;99.90;;;;;;5025064;28;20093;-83
2024/01/07 12:58:43;;;;;;;4.75;0.80;;;2.40;99.90;;;;;;5026691;28;20037;-83